Time;durP1;ratioP1;P1;durP2;ratioP2;P2;SDS_P1;SDS_P2;PMS_P1;PMS_P2;Temp;Humidity;BMP_temperature;BMP_pressure;BME280_temperature;BME280_humidity;BME280_pressure;Samples;Min_cycle;Max_cycle;Signal;HPM_P1;HPM_P2
2023/10/28 00:00:06;;;;;;;6.03;3.57;;;;;;;;;;5060914;28;20205;-81
2023/10/28 00:02:33;;;;;;;8.80;4.33;;;;;;;;;;5071283;28;20205;-81
2023/10/28 00:05:00;;;;;;;11.40;4.07;;;;;;;;;;5072077;28;20205;-80
2023/10/28 00:07:27;;;;;;;8.70;4.20;;;;;;;;;;5071566;28;20220;-81
2023/10/28 00:09:55;;;;;;;7.17;4.23;;;;;;;;;;5072032;28;20211;-81
2023/10/28 00:12:22;;;;;;;11.53;3.90;;;;;;;;;;5071318;28;20269;-81
2023/10/28 00:14:49;;;;;;;8.33;4.63;;;;;;;;;;5071951;28;20296;-81
2023/10/28 00:17:16;;;;;;;6.63;4.37;;;;;;;;;;5071350;28;20200;-81
2023/10/28 00:19:43;;;;;;;7.73;4.80;;;;;;;;;;5071764;28;20207;-81
2023/10/28 00:22:10;;;;;;;10.07;4.27;;;;;;;;;;5070792;28;20239;-81
2023/10/28 00:24:37;;;;;;;12.63;4.93;;;;;;;;;;5071566;28;20569;-81
2023/10/28 00:27:06;;;;;;;12.47;5.07;;;;;;;;;;5070477;28;20209;-80
2023/10/28 00:29:33;;;;;;;10.80;4.83;;;;;;;;;;5070985;28;20294;-81
2023/10/28 00:32:00;;;;;;;6.63;3.80;;;;;;;;;;5070169;28;20196;-81
2023/10/28 00:34:26;;;;;;;11.70;3.67;;;;;;;;;;5071574;28;20209;-81
2023/10/28 00:36:53;;;;;;;13.47;3.97;;;;;;;;;;5070872;28;20249;-81
2023/10/28 00:39:20;;;;;;;13.53;5.73;;;;;;;;;;5071100;28;20262;-82
2023/10/28 00:41:47;;;;;;;16.03;5.10;;;;;;;;;;5070635;28;20304;-82
2023/10/28 00:44:15;;;;;;;8.93;3.97;;;;;;;;;;5070866;28;20224;-81
2023/10/28 00:46:43;;;;;;;15.33;6.23;;;;;;;;;;5056758;28;20295;-81
2023/10/28 00:49:09;;;;;;;12.17;4.47;;;;;;;;;;5071130;28;20228;-81
2023/10/28 00:51:36;;;;;;;11.73;3.77;;;;;;;;;;5070703;28;20586;-81
2023/10/28 00:54:03;;;;;;;10.10;4.07;;;;;;;;;;5070880;28;20223;-82
2023/10/28 00:56:30;;;;;;;7.27;4.40;;;;;;;;;;5070821;28;20266;-81
2023/10/28 00:58:58;;;;;;;11.50;4.17;;;;;;;;;;5070767;28;20204;-81
2023/10/28 01:01:26;;;;;;;11.63;5.13;;;;;;;;;;5044482;28;20663;-81
2023/10/28 01:03:54;;;;;;;10.70;4.77;;;;;;;;;;5070602;28;20197;-82
2023/10/28 01:06:21;;;;;;;12.07;4.70;;;;;;;;;;5070212;28;20201;-81
2023/10/28 01:08:48;;;;;;;11.37;5.17;;;;;;;;;;5070199;28;20208;-81
2023/10/28 01:11:15;;;;;;;7.40;3.60;;;;;;;;;;5070600;28;20205;-81
2023/10/28 01:13:42;;;;;;;11.00;4.70;;;;;;;;;;5070503;28;20298;-82
2023/10/28 01:16:09;;;;;;;6.53;3.50;;;;;;;;;;5070408;28;20498;-81
2023/10/28 01:18:37;;;;;;;5.33;3.10;;;;;;;;;;5070709;28;20291;-81
2023/10/28 01:21:10;;;;;;;7.63;3.33;;;;;;;;;;5070304;28;20229;-82
2023/10/28 01:23:37;;;;;;;7.67;3.87;;;;;;;;;;5069980;28;20204;-81
2023/10/28 01:26:04;;;;;;;13.37;3.27;;;;;;;;;;5070521;28;20295;-82
2023/10/28 01:28:32;;;;;;;9.93;3.13;;;;;;;;;;5069897;28;20200;-81
2023/10/28 01:31:00;;;;;;;7.43;3.13;;;;;;;;;;5070716;28;20211;-81
2023/10/28 01:33:27;;;;;;;9.37;2.97;;;;;;;;;;5070176;28;20577;-81
2023/10/28 01:35:54;;;;;;;5.23;2.70;;;;;;;;;;5071409;28;20207;-80
2023/10/28 01:38:24;;;;;;;7.83;2.87;;;;;;;;;;5069815;28;20257;-81
2023/10/28 01:40:51;;;;;;;6.93;2.97;;;;;;;;;;5069805;28;20266;-82
2023/10/28 01:43:18;;;;;;;5.90;3.13;;;;;;;;;;5070208;28;20280;-81
2023/10/28 01:45:45;;;;;;;10.00;2.67;;;;;;;;;;5069882;28;20258;-80
2023/10/28 01:48:13;;;;;;;4.20;2.30;;;;;;;;;;5069706;28;20196;-80
2023/10/28 01:50:41;;;;;;;8.50;3.20;;;;;;;;;;5070150;28;20237;-81
2023/10/28 01:53:08;;;;;;;8.40;2.80;;;;;;;;;;5069806;28;20269;-81
2023/10/28 01:55:36;;;;;;;6.00;2.90;;;;;;;;;;5070128;28;20648;-81
2023/10/28 01:58:03;;;;;;;6.40;3.00;;;;;;;;;;5069553;28;20265;-82
2023/10/28 02:00:31;;;;;;;7.03;2.77;;;;;;;;;;5072594;28;20362;-81
2023/10/28 02:03:00;;;;;;;87.50;8.73;;;;;;;;;;5073834;28;20253;-81
2023/10/28 02:05:26;;;;;;;6.13;2.50;;;;;;;;;;5073399;28;20297;-81
2023/10/28 02:07:53;;;;;;;6.10;2.93;;;;;;;;;;5062128;28;20297;-81
2023/10/28 02:10:20;;;;;;;4.30;2.60;;;;;;;;;;5060062;28;20197;-81
2023/10/28 02:12:49;;;;;;;5.43;2.43;;;;;;;;;;5057160;28;20213;-81
2023/10/28 02:15:16;;;;;;;8.13;3.17;;;;;;;;;;5060441;28;20208;-81
2023/10/28 02:17:45;;;;;;;9.03;2.60;;;;;;;;;;5073705;28;20246;-81
2023/10/28 02:20:13;;;;;;;5.07;3.30;;;;;;;;;;5073655;28;20204;-81
2023/10/28 02:22:41;;;;;;;6.10;2.47;;;;;;;;;;5073261;28;20232;-81
2023/10/28 02:25:08;;;;;;;10.53;2.97;;;;;;;;;;5069145;28;20201;-81
2023/10/28 02:27:37;;;;;;;6.73;2.40;;;;;;;;;;5057674;28;20215;-81
2023/10/28 02:30:06;;;;;;;9.60;3.87;;;;;;;;;;5063479;28;20744;-81
2023/10/28 02:32:32;;;;;;;7.47;2.60;;;;;;;;;;5073041;28;20215;-81
2023/10/28 02:35:00;;;;;;;2.67;2.40;;;;;;;;;;5073536;28;20231;-82
2023/10/28 02:37:27;;;;;;;10.43;2.80;;;;;;;;;;5073267;28;20211;-80
2023/10/28 02:39:54;;;;;;;9.57;3.67;;;;;;;;;;5073554;28;20208;-81
2023/10/28 02:42:22;;;;;;;5.90;3.13;;;;;;;;;;5057405;28;20610;-79
2023/10/28 02:44:49;;;;;;;9.63;3.00;;;;;;;;;;5072139;28;20583;-79
2023/10/28 02:47:17;;;;;;;6.13;2.80;;;;;;;;;;5072969;28;20215;-79
2023/10/28 02:49:44;;;;;;;3.50;2.30;;;;;;;;;;5073083;28;20874;-78
2023/10/28 02:52:11;;;;;;;3.20;2.23;;;;;;;;;;5072405;28;20697;-78
2023/10/28 02:54:38;;;;;;;10.97;2.70;;;;;;;;;;5072554;28;20197;-78
2023/10/28 02:57:05;;;;;;;7.53;2.40;;;;;;;;;;5072980;28;20687;-79
2023/10/28 02:59:32;;;;;;;11.43;3.10;;;;;;;;;;5072551;28;20220;-79
2023/10/28 03:01:59;;;;;;;4.63;3.03;;;;;;;;;;5072303;28;20615;-80
2023/10/28 03:04:27;;;;;;;10.43;2.40;;;;;;;;;;5072837;28;20238;-80
2023/10/28 03:06:54;;;;;;;7.73;3.23;;;;;;;;;;5072033;28;20738;-79
2023/10/28 03:09:21;;;;;;;5.40;2.20;;;;;;;;;;5072627;28;20214;-79
2023/10/28 03:11:48;;;;;;;7.83;2.20;;;;;;;;;;5072183;28;20212;-79
2023/10/28 03:14:14;;;;;;;4.17;2.20;;;;;;;;;;5072816;28;20218;-79
2023/10/28 03:16:41;;;;;;;5.67;2.43;;;;;;;;;;5072450;28;20265;-79
2023/10/28 03:19:11;;;;;;;7.37;2.30;;;;;;;;;;5071948;28;20214;-79
2023/10/28 03:21:39;;;;;;;4.67;2.43;;;;;;;;;;5072006;28;20710;-79
2023/10/28 03:24:07;;;;;;;3.63;2.30;;;;;;;;;;5072623;28;20281;-79
2023/10/28 03:26:33;;;;;;;5.07;2.73;;;;;;;;;;5072209;28;20208;-79
2023/10/28 03:29:00;;;;;;;7.27;2.70;;;;;;;;;;5071785;28;20670;-80
2023/10/28 03:31:27;;;;;;;3.00;2.63;;;;;;;;;;5072275;28;20290;-81
2023/10/28 03:33:54;;;;;;;7.57;2.80;;;;;;;;;;5071852;28;20213;-79
2023/10/28 03:36:21;;;;;;;5.10;2.60;;;;;;;;;;5072477;28;20206;-79
2023/10/28 03:38:49;;;;;;;6.50;3.07;;;;;;;;;;5072770;28;20216;-79
2023/10/28 03:41:16;;;;;;;8.87;3.63;;;;;;;;;;5071494;28;20206;-80
2023/10/28 03:43:43;;;;;;;28.13;13.93;;;;;;;;;;5072039;28;20208;-79
2023/10/28 03:46:16;;;;;;;10.93;5.27;;;;;;;;;;5072032;28;20209;-79
2023/10/28 03:48:43;;;;;;;4.00;2.50;;;;;;;;;;5072210;28;20254;-79
2023/10/28 03:51:09;;;;;;;6.43;3.53;;;;;;;;;;5071675;28;20333;-79
2023/10/28 03:53:36;;;;;;;5.70;3.13;;;;;;;;;;5071361;28;20206;-80
2023/10/28 03:56:06;;;;;;;3.70;2.87;;;;;;;;;;5071823;28;20252;-79
2023/10/28 03:58:32;;;;;;;6.87;2.77;;;;;;;;;;5071517;28;20201;-79
2023/10/28 04:01:00;;;;;;;4.77;3.00;;;;;;;;;;5071742;28;20252;-79
2023/10/28 04:03:27;;;;;;;9.20;3.67;;;;;;;;;;5071339;28;20232;-79
2023/10/28 04:05:54;;;;;;;8.87;3.40;;;;;;;;;;5071170;28;20232;-79
2023/10/28 04:08:21;;;;;;;8.77;2.53;;;;;;;;;;5071614;28;20602;-79
2023/10/28 04:10:48;;;;;;;4.97;2.47;;;;;;;;;;5071498;28;20197;-78
2023/10/28 04:13:16;;;;;;;5.20;3.20;;;;;;;;;;5070953;28;20214;-78
2023/10/28 04:15:43;;;;;;;5.77;2.23;;;;;;;;;;5071786;28;20204;-78
2023/10/28 04:18:09;;;;;;;9.63;2.47;;;;;;;;;;5071356;28;20728;-78
2023/10/28 04:20:37;;;;;;;5.17;2.53;;;;;;;;;;5070871;28;20280;-78
2023/10/28 04:23:05;;;;;;;4.83;2.53;;;;;;;;;;5071172;28;20257;-78
2023/10/28 04:25:32;;;;;;;12.60;3.77;;;;;;;;;;5071202;28;20254;-79
2023/10/28 04:27:58;;;;;;;4.90;2.33;;;;;;;;;;5071131;28;20210;-78
2023/10/28 04:30:26;;;;;;;5.47;2.60;;;;;;;;;;5071429;28;20198;-79
2023/10/28 04:32:53;;;;;;;4.30;2.90;;;;;;;;;;5071238;28;20201;-79
2023/10/28 04:35:20;;;;;;;47.53;7.33;;;;;;;;;;5071340;28;20649;-79
2023/10/28 04:37:47;;;;;;;4.43;2.00;;;;;;;;;;5070800;28;20664;-79
2023/10/28 04:40:14;;;;;;;7.00;2.77;;;;;;;;;;5070528;28;20210;-79
2023/10/28 04:42:41;;;;;;;4.57;2.43;;;;;;;;;;5067544;28;20735;-79
2023/10/28 04:45:10;;;;;;;4.73;2.50;;;;;;;;;;5060540;28;20210;-78
2023/10/28 04:47:38;;;;;;;10.10;3.63;;;;;;;;;;5069737;28;20221;-79
2023/10/28 04:50:05;;;;;;;10.13;3.03;;;;;;;;;;5069789;28;20287;-80
2023/10/28 04:52:32;;;;;;;5.00;3.17;;;;;;;;;;5069503;28;20216;-79
2023/10/28 04:54:59;;;;;;;4.20;2.37;;;;;;;;;;5058921;28;20592;-80
2023/10/28 04:57:26;;;;;;;2.90;2.63;;;;;;;;;;5068059;28;20619;-79
2023/10/28 04:59:54;;;;;;;12.73;6.30;;;;;;;;;;5070154;28;20199;-79
2023/10/28 05:02:22;;;;;;;5.07;3.37;;;;;;;;;;5070574;28;20241;-79
2023/10/28 05:04:50;;;;;;;5.77;2.60;;;;;;;;;;5070128;28;20210;-77
2023/10/28 05:07:17;;;;;;;8.33;3.87;;;;;;;;;;5056308;28;20191;-77
2023/10/28 05:09:44;;;;;;;11.03;2.57;;;;;;;;;;5048273;28;20207;-77
2023/10/28 05:12:10;;;;;;;3.10;2.80;;;;;;;;;;5049762;28;20262;-77
2023/10/28 05:14:37;;;;;;;2.93;2.30;;;;;;;;;;5050048;28;20263;-77
2023/10/28 05:17:06;;;;;;;5.03;3.17;;;;;;;;;;5042430;28;20195;-77
2023/10/28 05:19:33;;;;;;;6.17;3.13;;;;;;;;;;5050024;28;20285;-76
2023/10/28 05:22:03;;;;;;;15.87;6.10;;;;;;;;;;5049892;28;20277;-76
2023/10/28 05:24:30;;;;;;;4.23;2.90;;;;;;;;;;5054540;28;20290;-77
2023/10/28 05:26:57;;;;;;;6.23;2.93;;;;;;;;;;5059098;28;20214;-79
2023/10/28 05:29:24;;;;;;;8.23;2.83;;;;;;;;;;5052489;28;20200;-79
2023/10/28 05:31:50;;;;;;;4.93;2.50;;;;;;;;;;5050555;28;20209;-78
2023/10/28 05:34:19;;;;;;;5.07;2.87;;;;;;;;;;5054013;28;20193;-78
2023/10/28 05:36:45;;;;;;;10.77;3.40;;;;;;;;;;5069936;28;20295;-78
2023/10/28 05:39:14;;;;;;;5.07;2.73;;;;;;;;;;5070243;28;20202;-78
2023/10/28 05:41:40;;;;;;;2.73;2.43;;;;;;;;;;5070225;28;20205;-78
2023/10/28 05:44:07;;;;;;;5.03;2.57;;;;;;;;;;5069505;28;20780;-78
2023/10/28 05:46:34;;;;;;;7.63;2.80;;;;;;;;;;5070101;28;20212;-78
2023/10/28 05:49:01;;;;;;;3.60;2.83;;;;;;;;;;5070774;28;20203;-78
2023/10/28 05:51:29;;;;;;;10.93;3.70;;;;;;;;;;5070559;28;20232;-78
2023/10/28 05:53:57;;;;;;;9.70;3.40;;;;;;;;;;5070293;28;20211;-78
2023/10/28 05:56:25;;;;;;;9.50;3.13;;;;;;;;;;5069917;28;20197;-78
2023/10/28 05:58:52;;;;;;;6.20;2.90;;;;;;;;;;5070309;28;20589;-78
2023/10/28 06:01:19;;;;;;;7.90;3.30;;;;;;;;;;5069854;28;20712;-77
2023/10/28 06:03:46;;;;;;;4.67;2.57;;;;;;;;;;5070434;28;20679;-78
2023/10/28 06:06:13;;;;;;;9.50;3.93;;;;;;;;;;5069727;28;20203;-78
2023/10/28 06:08:39;;;;;;;2.50;2.30;;;;;;;;;;5069887;28;20208;-78
2023/10/28 06:11:06;;;;;;;6.57;3.27;;;;;;;;;;5069295;28;20681;-77
2023/10/28 06:13:35;;;;;;;7.57;2.63;;;;;;;;;;5070176;28;20212;-78
2023/10/28 06:16:01;;;;;;;6.80;2.70;;;;;;;;;;5044191;28;20201;-78
2023/10/28 06:18:29;;;;;;;7.93;3.03;;;;;;;;;;5069441;28;20675;-79
2023/10/28 06:20:56;;;;;;;6.20;3.13;;;;;;;;;;5069604;28;20204;-79
2023/10/28 06:23:23;;;;;;;10.70;3.13;;;;;;;;;;5064961;28;20249;-78
2023/10/28 06:25:50;;;;;;;7.87;2.97;;;;;;;;;;5067349;28;20198;-77
2023/10/28 06:28:18;;;;;;;8.33;3.37;;;;;;;;;;5069562;28;20219;-79
2023/10/28 06:30:49;;;;;;;2.90;2.30;;;;;;;;;;5069514;28;20285;-78
2023/10/28 06:33:16;;;;;;;3.93;2.20;;;;;;;;;;5069250;28;20193;-79
2023/10/28 06:35:43;;;;;;;5.63;2.40;;;;;;;;;;5060072;28;20209;-79
2023/10/28 06:38:10;;;;;;;12.73;2.43;;;;;;;;;;5064153;28;20209;-79
2023/10/28 06:40:37;;;;;;;4.47;2.93;;;;;;;;;;5068324;28;20212;-80
2023/10/28 06:43:05;;;;;;;12.67;3.20;;;;;;;;;;5069374;28;20315;-80
2023/10/28 06:45:32;;;;;;;3.10;1.90;;;;;;;;;;5071579;28;20212;-80
2023/10/28 06:48:00;;;;;;;7.03;2.43;;;;;;;;;;5073388;28;20220;-79
2023/10/28 06:50:27;;;;;;;4.53;2.30;;;;;;;;;;5072747;28;20221;-80
2023/10/28 06:52:56;;;;;;;26.27;6.77;;;;;;;;;;5072943;28;20201;-82
2023/10/28 06:55:23;;;;;;;11.20;2.93;;;;;;;;;;5068005;28;20213;-80
2023/10/28 06:57:50;;;;;;;3.67;2.77;;;;;;;;;;5056021;28;20202;-80
2023/10/28 07:00:17;;;;;;;2.37;1.67;;;;;;;;;;5053598;28;20210;-81
2023/10/28 07:02:44;;;;;;;3.67;2.23;;;;;;;;;;5066159;28;20221;-80
2023/10/28 07:05:14;;;;;;;6.70;1.93;;;;;;;;;;5046804;28;20212;-81
2023/10/28 07:07:41;;;;;;;2.63;1.87;;;;;;;;;;5061837;28;20202;-88
2023/10/28 07:10:08;;;;;;;5.00;2.10;;;;;;;;;;5066843;28;20208;-88
2023/10/28 07:12:35;;;;;;;5.57;1.93;;;;;;;;;;5054245;28;20220;-87
2023/10/28 07:15:02;;;;;;;8.10;2.17;;;;;;;;;;5066514;28;20201;-86
2023/10/28 07:17:29;;;;;;;4.57;1.77;;;;;;;;;;5070453;28;20216;-79
2023/10/28 07:19:58;;;;;;;3.77;1.67;;;;;;;;;;5064555;28;20200;-81
2023/10/28 07:22:26;;;;;;;4.23;1.77;;;;;;;;;;5072245;28;20228;-79
2023/10/28 07:24:54;;;;;;;6.13;2.70;;;;;;;;;;5072864;28;20255;-79
2023/10/28 07:27:21;;;;;;;3.13;1.83;;;;;;;;;;5072685;28;20284;-78
2023/10/28 07:29:49;;;;;;;4.50;2.03;;;;;;;;;;5070591;28;20208;-78
2023/10/28 07:32:16;;;;;;;5.87;2.10;;;;;;;;;;5072645;28;20289;-78
2023/10/28 07:34:42;;;;;;;3.83;1.60;;;;;;;;;;5072165;28;20208;-78
2023/10/28 07:37:09;;;;;;;3.63;1.50;;;;;;;;;;5072252;28;20209;-78
2023/10/28 07:39:38;;;;;;;3.93;1.60;;;;;;;;;;5072089;28;20212;-78
2023/10/28 07:42:05;;;;;;;2.70;1.77;;;;;;;;;;5066149;28;20271;-78
2023/10/28 07:44:32;;;;;;;3.17;1.43;;;;;;;;;;5065885;28;20232;-78
2023/10/28 07:47:00;;;;;;;4.00;1.43;;;;;;;;;;5065486;28;20217;-78
2023/10/28 07:49:27;;;;;;;2.03;1.40;;;;;;;;;;5065449;28;20683;-78
2023/10/28 07:51:54;;;;;;;2.50;1.60;;;;;;;;;;5056456;28;20389;-78
2023/10/28 07:54:21;;;;;;;5.10;1.47;;;;;;;;;;5061524;28;20267;-79
2023/10/28 07:56:51;;;;;;;3.80;1.73;;;;;;;;;;5061023;28;20205;-79
2023/10/28 07:59:19;;;;;;;5.43;1.60;;;;;;;;;;5068055;28;20296;-78
2023/10/28 08:01:46;;;;;;;2.10;1.53;;;;;;;;;;5071162;28;20212;-79
2023/10/28 08:04:13;;;;;;;4.93;1.80;;;;;;;;;;5071976;28;20225;-79
2023/10/28 08:06:41;;;;;;;2.53;1.30;;;;;;;;;;5066852;28;20284;-78
2023/10/28 08:09:09;;;;;;;5.50;1.60;;;;;;;;;;5059052;28;20198;-80
2023/10/28 08:11:36;;;;;;;4.60;1.60;;;;;;;;;;5054642;28;20306;-79
2023/10/28 08:14:05;;;;;;;3.17;1.60;;;;;;;;;;5068671;28;20208;-79
2023/10/28 08:16:32;;;;;;;2.07;1.37;;;;;;;;;;5068530;28;20229;-78
2023/10/28 08:18:59;;;;;;;4.90;1.67;;;;;;;;;;5069296;28;20200;-78
2023/10/28 08:21:27;;;;;;;2.60;1.37;;;;;;;;;;5069094;28;20201;-78
2023/10/28 08:23:53;;;;;;;4.47;1.70;;;;;;;;;;5070215;28;20290;-79
2023/10/28 08:26:21;;;;;;;3.37;2.50;;;;;;;;;;5069043;28;20200;-78
2023/10/28 08:28:50;;;;;;;4.50;2.13;;;;;;;;;;5069802;28;20201;-79
2023/10/28 08:31:18;;;;;;;3.13;1.70;;;;;;;;;;5069131;28;20197;-80
2023/10/28 08:33:44;;;;;;;3.13;2.20;;;;;;;;;;5070226;28;20640;-80
2023/10/28 08:36:11;;;;;;;6.23;2.37;;;;;;;;;;5070609;28;20201;-79
2023/10/28 08:38:38;;;;;;;2.80;1.63;;;;;;;;;;5070389;28;20667;-79
2023/10/28 08:41:05;;;;;;;4.37;2.30;;;;;;;;;;5070595;28;20576;-78
2023/10/28 08:43:33;;;;;;;2.47;1.73;;;;;;;;;;5070944;28;20320;-79
2023/10/28 08:46:01;;;;;;;3.67;1.40;;;;;;;;;;5071153;28;20276;-78
2023/10/28 08:48:30;;;;;;;5.83;1.80;;;;;;;;;;5071081;28;20251;-78
2023/10/28 08:51:00;;;;;;;4.70;1.90;;;;;;;;;;5070445;28;20734;-78
2023/10/28 08:53:28;;;;;;;1.90;1.30;;;;;;;;;;5071223;28;20228;-78
2023/10/28 08:55:55;;;;;;;2.53;1.90;;;;;;;;;;5071404;28;20290;-78
2023/10/28 08:58:23;;;;;;;2.20;1.97;;;;;;;;;;5070629;28;20197;-79
2023/10/28 09:00:50;;;;;;;3.77;1.50;;;;;;;;;;5071012;28;20209;-79
2023/10/28 09:03:18;;;;;;;4.20;1.70;;;;;;;;;;5070579;28;20225;-79
2023/10/28 09:05:47;;;;;;;9.47;1.97;;;;;;;;;;5070160;28;20362;-79
2023/10/28 09:08:14;;;;;;;10.30;1.70;;;;;;;;;;5071192;28;20212;-79
2023/10/28 09:10:42;;;;;;;4.63;1.70;;;;;;;;;;5070280;28;20233;-79
2023/10/28 09:13:09;;;;;;;4.17;1.63;;;;;;;;;;5071195;28;20208;-79
2023/10/28 09:15:36;;;;;;;2.60;1.40;;;;;;;;;;5070755;28;20212;-79
2023/10/28 09:18:02;;;;;;;8.47;2.47;;;;;;;;;;5070613;28;20278;-78
2023/10/28 09:20:29;;;;;;;6.50;1.73;;;;;;;;;;5056718;28;20593;-79
2023/10/28 09:22:57;;;;;;;5.83;2.17;;;;;;;;;;5070276;28;20563;-79
2023/10/28 09:25:24;;;;;;;5.37;1.83;;;;;;;;;;5070401;28;20212;-79
2023/10/28 09:27:51;;;;;;;2.53;2.33;;;;;;;;;;5070616;28;20200;-79
2023/10/28 09:30:18;;;;;;;2.43;1.67;;;;;;;;;;5069917;28;20201;-80
2023/10/28 09:32:45;;;;;;;3.53;1.53;;;;;;;;;;5070621;28;20236;-80
2023/10/28 09:35:13;;;;;;;5.07;1.77;;;;;;;;;;5070959;28;20205;-79
2023/10/28 09:37:41;;;;;;;6.90;1.90;;;;;;;;;;5070465;28;20649;-78
2023/10/28 09:40:12;;;;;;;1.77;1.47;;;;;;;;;;5070594;28;20288;-79
2023/10/28 09:42:39;;;;;;;8.40;2.42;;;;;;;;;;5057879;28;20661;-79
2023/10/28 09:45:08;;;;;;;1.87;1.70;;;;;;;;;;5069543;28;20702;-79
2023/10/28 09:47:42;;;;;;;4.77;2.10;;;;;;;;;;5070348;28;20262;-78
2023/10/28 09:50:14;;;;;;;6.10;2.07;;;;;;;;;;5070129;28;20641;-79
2023/10/28 09:52:42;;;;;;;5.83;2.90;;;;;;;;;;5070250;28;20227;-79
2023/10/28 09:55:13;;;;;;;3.77;2.57;;;;;;;;;;5070715;28;20278;-78
2023/10/28 09:57:41;;;;;;;4.20;2.00;;;;;;;;;;5069905;28;20638;-79
2023/10/28 10:00:10;;;;;;;3.17;2.03;;;;;;;;;;5070114;28;20205;-78
2023/10/28 10:02:44;;;;;;;2.60;2.00;;;;;;;;;;5069924;28;20306;-78
2023/10/28 10:05:17;;;;;;;9.13;2.23;;;;;;;;;;5070195;28;20645;-78
2023/10/28 10:07:45;;;;;;;6.10;2.17;;;;;;;;;;5069317;28;20292;-79
2023/10/28 10:10:16;;;;;;;10.33;3.17;;;;;;;;;;5070344;28;20259;-80
2023/10/28 10:12:43;;;;;;;12.33;4.33;;;;;;;;;;5069644;28;20691;-79
2023/10/28 10:15:13;;;;;;;4.13;2.97;;;;;;;;;;5070162;28;20201;-79
2023/10/28 10:17:46;;;;;;;5.30;2.40;;;;;;;;;;5069242;28;20201;-78
2023/10/28 10:20:12;;;;;;;6.47;1.93;;;;;;;;;;5071475;28;20696;-79
2023/10/28 10:22:41;;;;;;;3.33;2.20;;;;;;;;;;5073824;28;20205;-79
2023/10/28 10:25:09;;;;;;;3.40;2.20;;;;;;;;;;5073761;28;20221;-79
2023/10/28 10:27:38;;;;;;;4.57;3.00;;;;;;;;;;5073288;28;20627;-78
2023/10/28 10:30:07;;;;;;;5.80;2.20;;;;;;;;;;5073649;28;20201;-79
2023/10/28 10:32:41;;;;;;;2.40;1.70;;;;;;;;;;5073691;28;20255;-78
2023/10/28 10:35:12;;;;;;;2.92;2.13;;;;;;;;;;5073211;28;20231;-79
2023/10/28 10:37:39;;;;;;;5.78;2.38;;;;;;;;;;5073993;28;20266;-78
2023/10/28 10:40:09;;;;;;;8.00;2.22;;;;;;;;;;5073417;28;20686;-79
2023/10/28 10:42:38;;;;;;;6.75;3.40;;;;;;;;;;5073647;28;20196;-78
2023/10/28 10:45:07;;;;;;;5.07;2.70;;;;;;;;;;5073191;28;20635;-79
2023/10/28 10:47:34;;;;;;;6.07;2.38;;;;;;;;;;5072923;28;20620;-81
2023/10/28 10:50:01;;;;;;;8.57;4.20;;;;;;;;;;5073544;28;20236;-79
2023/10/28 10:52:27;;;;;;;5.15;2.60;;;;;;;;;;5073346;28;20201;-78
2023/10/28 10:54:55;;;;;;;4.25;2.05;;;;;;;;;;5072631;28;20209;-78
2023/10/28 10:57:22;;;;;;;6.78;3.38;;;;;;;;;;5072995;28;20205;-78
2023/10/28 10:59:50;;;;;;;3.95;1.77;;;;;;;;;;5073053;28;20212;-79
2023/10/28 11:02:17;;;;;;;10.95;4.82;;;;;;;;;;5072831;28;20212;-79
2023/10/28 11:04:45;;;;;;;4.85;2.55;;;;;;;;;;5072767;28;20232;-79
2023/10/28 11:07:11;;;;;;;5.55;2.63;;;;;;;;;;5072692;28;20213;-79
2023/10/28 11:09:42;;;;;;;6.60;3.20;;;;;;;;;;5073657;28;20212;-78
2023/10/28 11:12:08;;;;;;;9.32;2.92;;;;;;;;;;5072624;28;20201;-78
2023/10/28 11:14:35;;;;;;;5.53;3.05;;;;;;;;;;5072868;28;20205;-79
2023/10/28 11:17:04;;;;;;;4.68;2.72;;;;;;;;;;5072638;28;20684;-79
2023/10/28 11:19:31;;;;;;;4.95;2.45;;;;;;;;;;5072597;28;20634;-79
2023/10/28 11:21:59;;;;;;;8.65;3.38;;;;;;;;;;5072435;28;20201;-79
2023/10/28 11:24:27;;;;;;;6.90;3.38;;;;;;;;;;5072726;28;20217;-79
2023/10/28 11:26:56;;;;;;;6.10;2.70;;;;;;;;;;5072013;28;20217;-79
2023/10/28 11:29:24;;;;;;;15.40;10.73;;;;;;;;;;5072772;28;20209;-79
2023/10/28 11:31:51;;;;;;;7.57;2.42;;;;;;;;;;5071283;28;20204;-79
2023/10/28 11:34:19;;;;;;;4.43;1.80;;;;;;;;;;5072415;28;20201;-79
2023/10/28 11:36:46;;;;;;;3.50;2.13;;;;;;;;;;5071601;28;20205;-79
2023/10/28 11:39:14;;;;;;;4.32;2.28;;;;;;;;;;5072505;28;20205;-80
2023/10/28 11:41:44;;;;;;;3.70;2.65;;;;;;;;;;5072087;28;20587;-79
2023/10/28 11:44:11;;;;;;;7.35;2.55;;;;;;;;;;5071997;28;20221;-79
2023/10/28 11:46:39;;;;;;;2.60;2.40;;;;;;;;;;5072022;28;20284;-79
2023/10/28 11:49:06;;;;;;;5.55;2.42;;;;;;;;;;5072313;28;20197;-79
2023/10/28 11:51:34;;;;;;;5.45;2.60;;;;;;;;;;5072047;28;20270;-79
2023/10/28 11:54:03;;;;;;;3.05;2.03;;;;;;;;;;5071945;28;20630;-79
2023/10/28 11:56:31;;;;;;;6.23;1.93;;;;;;;;;;5071635;28;20197;-79
2023/10/28 11:58:59;;;;;;;4.10;2.33;;;;;;;;;;5072194;28;20215;-79
2023/10/28 12:01:26;;;;;;;4.80;2.55;;;;;;;;;;5072871;28;20205;-79
2023/10/28 12:03:54;;;;;;;6.95;2.45;;;;;;;;;;5072302;28;20269;-79
2023/10/28 12:06:22;;;;;;;5.40;2.37;;;;;;;;;;5046042;28;20557;-80
2023/10/28 12:08:50;;;;;;;5.82;2.70;;;;;;;;;;5071934;28;20208;-79
2023/10/28 12:11:17;;;;;;;5.73;2.70;;;;;;;;;;5071918;28;20212;-79
2023/10/28 12:13:44;;;;;;;6.60;2.58;;;;;;;;;;5072116;28;20208;-80
2023/10/28 12:16:11;;;;;;;6.70;2.20;;;;;;;;;;5071490;28;20813;-79
2023/10/28 12:18:38;;;;;;;8.02;2.10;;;;;;;;;;5071597;28;20197;-79
2023/10/28 12:21:07;;;;;;;2.97;1.88;;;;;;;;;;5071288;28;20690;-79
2023/10/28 12:23:34;;;;;;;6.22;2.67;;;;;;;;;;5071399;28;20292;-79
2023/10/28 12:26:04;;;;;;;5.60;2.20;;;;;;;;;;5071443;28;20267;-79
2023/10/28 12:28:31;;;;;;;5.10;1.75;;;;;;;;;;5070949;28;20267;-79
2023/10/28 12:30:57;;;;;;;2.42;1.90;;;;;;;;;;5071227;28;20201;-79
2023/10/28 12:33:24;;;;;;;5.05;2.25;;;;;;;;;;5071421;28;20208;-79
2023/10/28 12:35:54;;;;;;;5.57;2.65;;;;;;;;;;5071670;28;20197;-79
2023/10/28 12:38:21;;;;;;;2.50;1.48;;;;;;;;;;5071268;28;20204;-79
2023/10/28 12:40:48;;;;;;;5.00;2.38;;;;;;;;;;5070981;28;20201;-79
2023/10/28 12:43:16;;;;;;;7.70;2.47;;;;;;;;;;5070380;28;20209;-79
2023/10/28 12:45:43;;;;;;;5.88;2.05;;;;;;;;;;5071254;28;20225;-79
2023/10/28 12:48:10;;;;;;;6.47;2.10;;;;;;;;;;5070691;28;20671;-79
2023/10/28 12:50:36;;;;;;;5.30;2.22;;;;;;;;;;5071360;28;20235;-79
2023/10/28 12:53:03;;;;;;;8.90;2.97;;;;;;;;;;5070680;28;20220;-79
2023/10/28 12:55:30;;;;;;;2.60;2.15;;;;;;;;;;5071349;28;20205;-79
2023/10/28 12:57:57;;;;;;;4.57;2.20;;;;;;;;;;5070661;28;20205;-79
2023/10/28 13:00:25;;;;;;;2.97;1.60;;;;;;;;;;5070886;28;20232;-80
2023/10/28 13:02:52;;;;;;;6.18;2.00;;;;;;;;;;5070334;28;20558;-79
2023/10/28 13:05:19;;;;;;;6.95;1.80;;;;;;;;;;5070853;28;20256;-80
2023/10/28 13:07:46;;;;;;;3.13;1.80;;;;;;;;;;5070157;28;20204;-80
2023/10/28 13:10:12;;;;;;;2.45;1.77;;;;;;;;;;5071393;28;20209;-78
2023/10/28 13:12:39;;;;;;;5.43;2.28;;;;;;;;;;5070256;28;20281;-79
2023/10/28 13:15:07;;;;;;;4.63;1.67;;;;;;;;;;5070733;28;20205;-79
2023/10/28 13:17:35;;;;;;;4.80;3.22;;;;;;;;;;5063751;28;20292;-79
2023/10/28 13:20:03;;;;;;;5.07;2.05;;;;;;;;;;5053080;28;20206;-79
2023/10/28 13:22:31;;;;;;;3.05;2.63;;;;;;;;;;5044961;28;20198;-80
2023/10/28 13:24:58;;;;;;;7.82;2.15;;;;;;;;;;5044509;28;20253;-80
2023/10/28 13:27:25;;;;;;;6.33;2.40;;;;;;;;;;5058753;28;20201;-80
2023/10/28 13:29:52;;;;;;;3.80;2.10;;;;;;;;;;5055086;28;20214;-81
2023/10/28 13:32:19;;;;;;;2.37;1.60;;;;;;;;;;5043365;28;20752;-81
2023/10/28 13:34:47;;;;;;;8.80;2.17;;;;;;;;;;5054143;28;20197;-81
2023/10/28 13:37:16;;;;;;;2.10;1.67;;;;;;;;;;5043917;28;20217;-80
2023/10/28 13:39:43;;;;;;;5.40;2.33;;;;;;;;;;5061315;28;20288;-80
2023/10/28 13:42:10;;;;;;;2.43;2.10;;;;;;;;;;5061004;28;20201;-84
2023/10/28 13:44:36;;;;;;;5.20;1.77;;;;;;;;;;5060765;28;20581;-80
2023/10/28 13:47:04;;;;;;;3.67;2.03;;;;;;;;;;5055778;28;20292;-80
2023/10/28 13:49:31;;;;;;;6.00;2.07;;;;;;;;;;5067602;28;20205;-80
2023/10/28 13:52:00;;;;;;;3.00;2.53;;;;;;;;;;5057960;28;20232;-80
2023/10/28 13:54:27;;;;;;;8.17;1.77;;;;;;;;;;5062292;28;20690;-81
2023/10/28 13:56:54;;;;;;;6.30;1.93;;;;;;;;;;5055515;28;20239;-80
2023/10/28 13:59:21;;;;;;;5.73;2.00;;;;;;;;;;5067520;28;20201;-82
2023/10/28 14:01:50;;;;;;;4.40;1.93;;;;;;;;;;5062100;28;20200;-81
2023/10/28 14:04:16;;;;;;;2.43;2.10;;;;;;;;;;5070830;28;20201;-83
2023/10/28 14:06:44;;;;;;;4.70;1.60;;;;;;;;;;5059521;28;20229;-82
2023/10/28 14:09:12;;;;;;;2.43;1.53;;;;;;;;;;5053418;28;20627;-83
2023/10/28 14:11:39;;;;;;;4.40;1.90;;;;;;;;;;5061041;28;20292;-82
2023/10/28 14:14:08;;;;;;;6.77;2.20;;;;;;;;;;5066556;28;20213;-82
2023/10/28 14:16:35;;;;;;;4.23;2.20;;;;;;;;;;5061751;28;20361;-82
2023/10/28 14:19:04;;;;;;;3.23;2.13;;;;;;;;;;5065085;28;20727;-82
2023/10/28 14:21:30;;;;;;;4.67;2.03;;;;;;;;;;5062964;28;20193;-83
2023/10/28 14:23:58;;;;;;;3.43;2.10;;;;;;;;;;5064534;28;20201;-83
2023/10/28 14:26:27;;;;;;;4.73;2.47;;;;;;;;;;5061873;28;20238;-82
2023/10/28 14:28:54;;;;;;;4.27;2.07;;;;;;;;;;5058088;28;20201;-84
2023/10/28 14:31:21;;;;;;;3.23;1.70;;;;;;;;;;5065989;28;20193;-82
2023/10/28 14:33:48;;;;;;;3.10;1.90;;;;;;;;;;5066093;28;20624;-83
2023/10/28 14:36:15;;;;;;;2.53;1.43;;;;;;;;;;5063701;28;20205;-81
2023/10/28 14:38:42;;;;;;;5.03;1.57;;;;;;;;;;5061710;28;20252;-81
2023/10/28 14:41:09;;;;;;;9.53;3.53;;;;;;;;;;5061144;28;20205;-80